createdAt,value
2018-11-20T07:34:11.150Z,4.23
2018-11-20T07:35:19.456Z,3.90
2018-11-20T07:36:19.684Z,3.78
2018-11-20T07:36:54.351Z,3.87
2018-11-20T07:37:54.128Z,3.78
2018-11-20T07:38:54.084Z,3.62
2018-11-20T07:39:54.048Z,3.70
2018-11-20T07:40:52.029Z,3.90
2018-11-20T07:41:51.994Z,4.08
2018-11-20T07:42:52.141Z,4.00
2018-11-20T07:43:52.043Z,4.02
2018-11-20T07:44:51.915Z,3.97
2018-11-20T07:45:51.901Z,3.97
2018-11-20T07:46:51.893Z,3.94
2018-11-20T07:47:51.916Z,4.05
2018-11-20T07:48:51.869Z,4.18
2018-11-20T07:49:51.856Z,4.26
2018-11-20T07:50:51.862Z,4.14
2018-11-20T07:51:51.843Z,3.94
2018-11-20T07:52:51.943Z,3.96
2018-11-20T07:53:51.822Z,3.91
2018-11-20T07:54:51.814Z,4.02
2018-11-20T07:55:51.855Z,3.79
2018-11-20T07:56:51.816Z,3.68
2018-11-20T07:57:51.817Z,3.83
2018-11-20T07:58:51.784Z,3.90
2018-11-20T07:59:51.751Z,3.94
2018-11-20T08:00:51.738Z,3.94
2018-11-20T08:01:51.726Z,3.94
2018-11-20T08:02:51.716Z,4.00
2018-11-20T08:03:51.802Z,3.76
2018-11-20T08:04:51.695Z,3.88
2018-11-20T08:05:51.682Z,3.91
2018-11-20T08:06:51.674Z,3.84
2018-11-20T08:07:51.660Z,3.76
2018-11-20T08:08:51.652Z,3.73
2018-11-20T08:09:51.678Z,3.73
2018-11-20T08:10:51.661Z,3.88
2018-11-20T08:11:51.618Z,3.86
2018-11-20T08:12:51.620Z,3.93
2018-11-20T08:13:51.594Z,3.80
2018-11-20T08:14:51.625Z,3.90
2018-11-20T08:15:51.578Z,3.69
2018-11-20T08:16:51.563Z,3.58
2018-11-20T08:17:51.552Z,3.68
2018-11-20T08:18:51.543Z,3.76
2018-11-20T08:19:51.563Z,3.68
2018-11-20T08:20:51.521Z,3.79
2018-11-20T08:21:51.508Z,3.73
2018-11-20T08:22:51.497Z,3.73
2018-11-20T08:23:51.485Z,3.93
2018-11-20T08:24:51.474Z,4.23
2018-11-20T08:25:51.657Z,4.02
2018-11-20T08:26:51.453Z,3.86
2018-11-20T08:27:51.454Z,3.60
2018-11-20T08:28:51.454Z,3.70
2018-11-20T08:29:51.425Z,3.73
2018-11-20T08:30:51.499Z,3.83
2018-11-20T08:31:51.398Z,3.86
2018-11-20T08:32:51.391Z,3.93
2018-11-20T08:33:51.454Z,3.88
2018-11-20T08:34:51.384Z,4.00
2018-11-20T08:35:51.388Z,4.05
2018-11-20T08:36:51.388Z,4.16
2018-11-20T08:37:51.329Z,3.94
2018-11-20T08:38:51.321Z,4.05
2018-11-20T08:39:51.321Z,3.88
2018-11-20T08:40:51.302Z,3.87
2018-11-20T08:41:51.312Z,3.98
2018-11-20T08:42:51.286Z,3.98
2018-11-20T08:43:51.268Z,4.00
2018-11-20T08:44:51.269Z,4.05
2018-11-20T08:45:51.387Z,4.42
2018-11-20T08:46:51.315Z,4.40
2018-11-20T08:47:51.246Z,4.41
2018-11-20T08:48:51.217Z,4.45
2018-11-20T08:49:51.200Z,4.33
2018-11-20T08:50:51.219Z,4.26
2018-11-20T08:51:51.213Z,4.26
2018-11-20T08:52:51.275Z,4.34
2018-11-20T08:53:51.334Z,4.22
2018-11-20T08:54:51.264Z,4.32
2018-11-20T08:55:51.134Z,4.32
2018-11-20T08:56:51.122Z,4.42
2018-11-20T08:57:51.132Z,4.51
2018-11-20T08:58:51.102Z,4.44
2018-11-20T08:59:51.090Z,4.34
2018-11-20T09:00:51.083Z,4.47
2018-11-20T09:01:51.066Z,4.29
2018-11-20T09:02:51.197Z,4.24
2018-11-20T09:03:51.046Z,4.18
2018-11-20T09:04:51.034Z,4.23
2018-11-20T09:05:51.026Z,4.29
2018-11-20T09:06:51.013Z,4.12
2018-11-20T09:07:51.023Z,3.96
2018-11-20T09:08:51.035Z,3.90
2018-11-20T09:09:51.009Z,4.12
2018-11-20T09:10:50.967Z,4.14
2018-11-20T09:11:50.991Z,4.34
2018-11-20T09:12:50.966Z,4.58
2018-11-20T09:13:50.946Z,4.60
2018-11-20T09:14:50.934Z,4.36
2018-11-20T09:15:50.940Z,4.24
2018-11-20T09:16:50.961Z,4.24
2018-11-20T09:17:50.922Z,4.41
2018-11-20T09:18:50.878Z,4.47
2018-11-20T09:19:50.866Z,4.45
2018-11-20T09:20:50.858Z,4.29
2018-11-20T09:21:50.854Z,4.23
2018-11-20T09:22:50.864Z,4.33
2018-11-20T09:23:50.822Z,4.30
2018-11-20T09:24:50.813Z,4.34
2018-11-20T09:25:50.866Z,4.45
2018-11-20T09:26:50.791Z,4.44
2018-11-20T09:27:50.854Z,4.52
2018-11-20T09:28:50.792Z,4.29
2018-11-20T09:29:50.755Z,4.12
2018-11-20T09:30:50.744Z,4.22
2018-11-20T09:31:50.736Z,4.12
2018-11-20T09:32:50.748Z,4.27
2018-11-20T09:33:50.740Z,4.33
2018-11-20T09:34:50.739Z,4.26
2018-11-20T09:35:50.689Z,4.40
2018-11-20T09:36:50.678Z,4.22
2018-11-20T09:37:50.749Z,4.12
2018-11-20T09:38:50.689Z,4.22
2018-11-20T09:39:50.650Z,4.32
2018-11-20T09:40:50.639Z,4.62
2018-11-20T09:41:50.626Z,4.55
2018-11-20T09:42:50.613Z,4.63
2018-11-20T09:43:50.620Z,4.42
2018-11-20T09:44:50.593Z,4.30
2018-11-20T09:45:50.583Z,4.44
2018-11-20T09:46:50.568Z,4.66
2018-11-20T09:47:50.620Z,4.75
2018-11-20T09:48:50.585Z,4.54
2018-11-20T09:49:50.566Z,4.42
2018-11-20T09:50:50.573Z,4.22
2018-11-20T09:51:50.518Z,4.12
2018-11-20T09:52:50.618Z,4.18
2018-11-20T09:53:50.495Z,4.15
2018-11-20T09:54:50.496Z,4.16
2018-11-20T09:55:50.466Z,4.18
2018-11-20T09:56:50.456Z,4.14
2018-11-20T09:57:50.441Z,4.18
2018-11-20T09:58:50.433Z,4.15
2018-11-20T09:59:50.523Z,4.32
2018-11-20T10:00:50.408Z,4.45
2018-11-20T10:01:50.439Z,4.62
2018-11-20T10:02:50.388Z,4.69
2018-11-20T10:03:50.462Z,4.42
2018-11-20T10:04:50.364Z,4.42
2018-11-20T10:05:50.374Z,4.42
2018-11-20T10:06:50.349Z,4.34
2018-11-20T10:07:50.330Z,4.40
2018-11-20T10:08:50.383Z,4.47
2018-11-20T10:09:50.309Z,4.51
2018-11-20T10:10:50.324Z,4.51
2018-11-20T10:11:50.289Z,4.75
2018-11-20T10:12:50.276Z,4.78
2018-11-20T10:13:50.273Z,4.69
2018-11-20T10:14:50.410Z,4.77
2018-11-20T10:15:50.327Z,4.72
2018-11-20T10:16:50.261Z,4.69
2018-11-20T10:17:50.220Z,4.75
2018-11-20T10:18:50.208Z,4.88
2018-11-20T10:19:50.196Z,4.73
2018-11-20T10:20:50.226Z,4.82
2018-11-20T10:21:50.253Z,4.85
2018-11-20T10:22:50.163Z,4.75
2018-11-20T10:23:50.171Z,4.72
2018-11-20T10:24:50.224Z,4.78
2018-11-20T10:25:50.489Z,4.86
2018-11-20T10:26:50.146Z,4.88
2018-11-20T10:27:50.109Z,5.03
2018-11-20T10:28:50.096Z,5.00
2018-11-20T10:29:50.085Z,4.94
2018-11-20T10:30:50.073Z,4.99
2018-11-20T10:31:50.098Z,5.12
2018-11-20T10:32:50.058Z,5.10
2018-11-20T10:33:50.045Z,5.20
2018-11-20T10:34:50.042Z,5.13
2018-11-20T10:35:50.018Z,5.35
2018-11-20T10:36:50.068Z,5.24
2018-11-20T10:37:50.004Z,5.13
2018-11-20T10:38:50.009Z,4.91
2018-11-20T10:39:49.977Z,4.97
2018-11-20T10:40:49.963Z,4.78
2018-11-20T10:41:49.988Z,5.07
2018-11-20T10:42:49.945Z,5.03
2018-11-20T10:43:49.933Z,5.07
2018-11-20T10:44:49.921Z,4.94
2018-11-20T10:45:49.953Z,4.94
2018-11-20T10:46:49.898Z,4.86
2018-11-20T10:47:49.909Z,4.97
2018-11-20T10:48:49.875Z,5.15
2018-11-20T10:49:49.888Z,5.24
2018-11-20T10:50:49.865Z,5.36
2018-11-20T10:51:49.847Z,5.39
2018-11-20T10:52:49.892Z,5.46
2018-11-20T10:53:49.821Z,5.46
2018-11-20T10:54:49.860Z,5.60
2018-11-20T10:55:49.839Z,5.60
2018-11-20T10:56:49.811Z,5.56
2018-11-20T10:57:49.920Z,5.38
2018-11-20T10:58:49.775Z,5.54
2018-11-20T10:59:49.930Z,5.67
2018-11-20T11:00:49.774Z,5.68
2018-11-20T11:01:49.775Z,5.57
2018-11-20T11:02:49.745Z,5.56
2018-11-20T11:03:49.826Z,5.36
2018-11-20T11:04:49.804Z,5.39
2018-11-20T11:05:49.696Z,5.22
2018-11-20T11:06:49.899Z,5.02
2018-11-20T11:07:49.825Z,5.06
2018-11-20T11:08:49.755Z,5.25
2018-11-20T11:09:49.643Z,5.36
2018-11-20T11:10:49.658Z,5.36
2018-11-20T11:11:49.662Z,5.46
2018-11-20T11:12:49.720Z,5.51
2018-11-20T11:13:49.735Z,5.28
2018-11-20T11:14:49.686Z,5.22
2018-11-20T11:15:49.603Z,5.20
2018-11-20T11:16:49.587Z,5.33
2018-11-20T11:17:49.806Z,5.31
2018-11-20T11:18:49.548Z,5.42
2018-11-20T11:19:49.606Z,5.36
2018-11-20T11:20:49.605Z,5.39
2018-11-20T11:21:49.515Z,5.36
2018-11-20T11:22:49.514Z,5.63
2018-11-20T11:23:49.516Z,5.49
2018-11-20T11:24:49.528Z,5.61
2018-11-20T11:25:49.508Z,5.63
2018-11-20T11:26:49.470Z,5.53
2018-11-20T11:27:49.451Z,5.56
2018-11-20T11:28:51.374Z,5.48
2018-11-20T11:29:49.444Z,5.31
2018-11-20T11:30:49.413Z,5.35
2018-11-20T11:31:49.404Z,5.30
2018-11-20T11:32:49.390Z,5.31
2018-11-20T11:33:49.422Z,5.46
2018-11-20T11:34:49.415Z,5.54
2018-11-20T11:35:49.407Z,5.54
2018-11-20T11:36:49.346Z,5.71
2018-11-20T11:37:49.336Z,5.57
2018-11-20T11:38:49.324Z,5.74
2018-11-20T11:39:49.335Z,5.54
2018-11-20T11:40:49.341Z,5.61
2018-11-20T11:41:49.321Z,5.71
2018-11-20T11:42:49.331Z,5.53
2018-11-20T11:43:49.275Z,5.54
2018-11-20T11:44:49.302Z,5.42
2018-11-20T11:45:49.281Z,5.33
2018-11-20T11:46:49.246Z,5.35
2018-11-20T11:47:49.278Z,5.38
2018-11-20T11:48:49.285Z,5.20
2018-11-20T11:49:49.221Z,5.22
2018-11-20T11:50:49.243Z,5.31
2018-11-20T11:51:49.253Z,5.48
2018-11-20T11:52:49.222Z,5.30
2018-11-20T11:53:49.171Z,5.18
2018-11-20T11:54:49.165Z,5.06
2018-11-20T11:55:49.265Z,5.28
2018-11-20T11:56:49.183Z,5.36
2018-11-20T11:57:49.152Z,5.48
2018-11-20T11:58:49.127Z,5.68
2018-11-20T11:59:49.110Z,5.89
2018-11-20T12:00:49.123Z,6.04
2018-11-20T12:03:49.062Z,5.82
2018-11-20T12:04:49.044Z,5.39
2018-11-20T12:05:49.050Z,5.25
2018-11-20T12:06:49.027Z,5.36
2018-11-20T12:07:49.006Z,5.40
2018-11-20T12:08:49.001Z,5.43
2018-11-20T12:09:49.059Z,5.42
2018-11-20T12:10:48.972Z,5.48
2018-11-20T12:11:48.986Z,5.48
2018-11-20T12:12:48.959Z,5.36
2018-11-20T12:13:48.940Z,5.27
2018-11-20T12:14:51.383Z,5.25
2018-11-20T12:15:48.916Z,5.38
2018-11-20T12:16:48.929Z,5.54
2018-11-20T12:17:48.895Z,5.45
2018-11-20T12:18:48.884Z,5.48
2018-11-20T12:19:48.872Z,5.46
2018-11-20T12:20:48.862Z,5.43
2018-11-20T12:21:48.877Z,5.38
2018-11-20T12:22:48.845Z,5.48
2018-11-20T12:23:48.827Z,5.54
2018-11-20T12:24:48.836Z,5.40
2018-11-20T12:25:48.807Z,5.27
2018-11-20T12:26:48.816Z,5.39
2018-11-20T12:27:48.783Z,5.31
2018-11-20T12:28:53.085Z,5.31
2018-11-20T12:29:48.763Z,5.30
2018-11-20T12:30:48.773Z,5.20
2018-11-20T12:31:50.685Z,4.99
2018-11-20T12:32:49.394Z,5.13
2018-11-20T12:33:48.718Z,5.15
2018-11-20T12:34:48.705Z,4.96
2018-11-20T12:35:48.698Z,4.89
2018-11-20T12:36:48.974Z,4.88
2018-11-20T12:37:48.673Z,4.97
2018-11-20T12:38:48.675Z,4.94
2018-11-20T12:39:48.652Z,4.92
2018-11-20T12:40:50.788Z,4.89
2018-11-20T12:41:48.629Z,4.88
2018-11-20T12:42:48.640Z,4.70
2018-11-20T12:43:48.613Z,4.86
2018-11-20T12:44:48.599Z,4.73
2018-11-20T12:45:48.585Z,4.91
2018-11-20T12:46:50.920Z,4.77
2018-11-20T12:47:48.587Z,4.72
2018-11-20T12:48:48.555Z,4.69
2018-11-20T12:49:49.735Z,4.85
2018-11-20T12:50:48.531Z,4.82
2018-11-20T12:51:48.725Z,4.77
2018-11-20T12:52:48.531Z,4.94
2018-11-20T12:53:48.496Z,4.84
2018-11-20T12:54:48.485Z,4.78
2018-11-20T12:55:48.474Z,4.70
2018-11-20T12:56:48.463Z,4.55
2018-11-20T12:57:48.475Z,4.77
2018-11-20T12:58:48.442Z,4.65
2018-11-20T12:59:48.430Z,4.73
2018-11-20T13:00:48.419Z,4.77
2018-11-20T13:01:48.407Z,4.66
2018-11-20T13:02:48.424Z,4.72
2018-11-20T13:03:48.397Z,4.59
2018-11-20T13:04:50.023Z,4.47
2018-11-20T13:05:48.366Z,4.45
2018-11-20T13:06:48.353Z,4.37
2018-11-20T13:07:48.340Z,4.48
2018-11-20T13:08:48.353Z,4.48
2018-11-20T13:09:48.319Z,4.63
2018-11-20T13:10:48.645Z,4.72
2018-11-20T13:11:48.297Z,4.66
2018-11-20T13:12:48.286Z,4.59
2018-11-20T13:13:50.220Z,4.47
2018-11-20T13:14:49.446Z,4.41
2018-11-20T13:15:49.389Z,4.34
2018-11-20T13:16:48.245Z,4.42
2018-11-20T13:17:49.176Z,4.37
2018-11-20T13:18:54.186Z,4.58
2018-11-20T13:19:48.232Z,4.47
2018-11-20T13:20:50.417Z,4.50
2018-11-20T13:21:49.881Z,4.51
2018-11-20T13:22:49.513Z,4.44
2018-11-20T13:23:49.913Z,4.51
2018-11-20T13:24:48.179Z,4.59
2018-11-20T13:25:48.142Z,4.55
2018-11-20T13:26:48.132Z,4.73
2018-11-20T13:27:48.132Z,4.72
2018-11-20T13:28:48.108Z,4.60
2018-11-20T13:29:48.097Z,4.52
2018-11-20T13:30:48.108Z,4.52
2018-11-20T13:31:48.090Z,4.47
2018-11-20T13:32:48.069Z,4.58
2018-11-20T13:33:49.643Z,4.50
2018-11-20T13:34:49.857Z,4.55
2018-11-20T13:35:48.057Z,4.51
2018-11-20T13:36:48.018Z,4.51
2018-11-20T13:37:48.008Z,4.54
2018-11-20T13:38:47.996Z,4.52
2018-11-20T13:39:47.991Z,4.62
2018-11-20T13:40:48.516Z,4.52
2018-11-20T13:41:47.991Z,4.54
2018-11-20T13:42:47.954Z,4.62
2018-11-20T13:43:47.945Z,4.67
2018-11-20T13:44:47.940Z,4.78
2018-11-20T13:45:47.920Z,4.67
2018-11-20T13:46:47.941Z,4.77
2018-11-20T13:47:47.896Z,4.85
2018-11-20T13:48:47.885Z,4.91
2018-11-20T13:49:47.874Z,4.78
2018-11-20T13:50:47.863Z,4.86
2018-11-20T13:51:47.853Z,4.80
2018-11-20T13:52:49.039Z,4.85
2018-11-20T13:53:47.829Z,4.75
2018-11-20T13:54:47.818Z,4.63
2018-11-20T13:55:47.816Z,4.60
2018-11-20T13:56:47.806Z,4.65
2018-11-20T13:57:47.900Z,4.65
2018-11-20T13:58:47.778Z,4.60
2018-11-20T13:59:47.763Z,4.63
2018-11-20T14:00:47.757Z,4.78
2018-11-20T14:01:47.740Z,4.72
2018-11-20T14:02:47.751Z,4.75
2018-11-20T14:03:47.719Z,4.62
2018-11-20T14:04:47.709Z,4.62
2018-11-20T14:05:47.695Z,4.50
2018-11-20T14:06:47.684Z,4.47
2018-11-20T14:07:47.696Z,4.50
2018-11-20T14:08:47.662Z,4.55
2018-11-20T14:09:47.658Z,4.70
2018-11-20T14:10:47.670Z,4.69
2018-11-20T14:11:47.638Z,4.65
2018-11-20T14:12:47.651Z,4.66
2018-11-20T14:13:47.606Z,4.70
2018-11-20T14:14:47.685Z,4.73
2018-11-20T14:15:47.593Z,4.77
2018-11-20T14:16:47.573Z,4.70
2018-11-20T14:17:47.562Z,4.69
2018-11-20T14:18:47.573Z,4.80
2018-11-20T14:19:47.539Z,4.72
2018-11-20T14:20:47.528Z,4.75
2018-11-20T14:21:47.518Z,4.72
2018-11-20T14:22:47.508Z,4.67
2018-11-20T14:23:47.517Z,4.66
2018-11-20T14:24:47.488Z,4.60
2018-11-20T14:25:47.479Z,4.52
2018-11-20T14:26:47.464Z,4.34
2018-11-20T14:27:47.450Z,4.40
2018-11-20T14:28:47.489Z,4.41
2018-11-20T14:29:47.465Z,4.45
2018-11-20T14:30:47.451Z,4.44
2018-11-20T14:31:47.413Z,4.50
2018-11-20T14:32:47.402Z,4.55
2018-11-20T14:33:47.405Z,4.58
2018-11-20T14:34:47.396Z,4.48
2018-11-20T14:35:47.360Z,4.55
2018-11-20T14:36:47.354Z,4.45
2018-11-20T14:37:47.340Z,4.30
2018-11-20T14:38:47.328Z,4.36
2018-11-20T14:39:47.344Z,4.26
2018-11-20T14:40:47.310Z,4.22
2018-11-20T14:41:47.298Z,4.27
2018-11-20T14:42:47.288Z,4.14
2018-11-20T14:43:47.275Z,4.23
2018-11-20T14:44:47.282Z,4.18
2018-11-20T14:45:47.254Z,4.18
2018-11-20T14:46:47.238Z,4.11
2018-11-20T14:47:47.229Z,4.12
2018-11-20T14:48:47.219Z,4.30
2018-11-20T14:49:47.229Z,4.40
2018-11-20T14:50:47.196Z,4.40
2018-11-20T14:51:47.183Z,4.42
2018-11-20T14:52:47.175Z,4.30
2018-11-20T14:53:47.166Z,4.26
2018-11-20T14:54:47.185Z,4.24
2018-11-20T14:55:47.159Z,4.16
2018-11-20T14:56:47.128Z,4.26
2018-11-20T14:57:47.118Z,4.24
2018-11-20T14:58:47.105Z,4.15
2018-11-20T14:59:47.097Z,4.14
2018-11-20T15:00:47.114Z,4.15
2018-11-20T15:01:47.073Z,4.24
2018-11-20T15:02:47.060Z,4.32
2018-11-20T15:03:47.089Z,4.12
2018-11-20T15:04:47.036Z,4.15
2018-11-20T15:05:47.029Z,4.18
2018-11-20T15:06:47.021Z,4.15
2018-11-20T15:07:47.005Z,3.98
2018-11-20T15:08:46.993Z,4.05
2018-11-20T15:09:47.013Z,3.94
2018-11-20T15:10:46.976Z,3.94
2018-11-20T15:11:46.960Z,3.96
2018-11-20T15:12:46.950Z,4.00
2018-11-20T15:13:46.942Z,4.02
2018-11-20T15:14:46.961Z,3.98
2018-11-20T15:15:46.918Z,3.98
2018-11-20T15:16:46.908Z,3.91
2018-11-20T15:17:46.895Z,3.96
2018-11-20T15:18:46.883Z,3.93
2018-11-20T15:19:46.902Z,3.90
2018-11-20T15:20:46.861Z,3.86
2018-11-20T15:21:46.851Z,3.88
2018-11-20T15:22:46.838Z,3.87
2018-11-20T15:23:46.833Z,3.97
2018-11-20T15:24:46.849Z,3.91
2018-11-20T15:25:46.807Z,3.98
2018-11-20T15:26:46.795Z,3.91
2018-11-20T15:27:46.785Z,3.87
2018-11-20T15:28:46.773Z,3.80
2018-11-20T15:29:46.807Z,3.87
2018-11-20T15:30:46.752Z,3.75
2018-11-20T15:31:46.740Z,3.80
2018-11-20T15:32:46.731Z,3.84
2018-11-20T15:33:46.742Z,3.90
2018-11-20T15:34:46.710Z,3.73
2018-11-20T15:35:46.727Z,3.69
2018-11-20T15:36:46.686Z,3.69
2018-11-20T15:37:46.674Z,3.78
2018-11-20T15:38:46.667Z,3.73
2018-11-20T15:39:46.652Z,3.66
2018-11-20T15:40:46.679Z,3.75
2018-11-20T15:41:46.633Z,3.65
2018-11-20T15:42:46.628Z,3.65
2018-11-20T15:43:46.609Z,3.60
2018-11-20T15:44:46.599Z,3.65
2018-11-20T15:45:46.622Z,3.61
2018-11-20T15:46:46.577Z,3.58
2018-11-20T15:47:46.565Z,3.57
2018-11-20T15:48:46.559Z,3.48
2018-11-20T15:49:46.544Z,3.54
2018-11-20T15:50:46.566Z,3.48
2018-11-20T15:51:46.522Z,3.36
2018-11-20T15:52:46.511Z,3.36
2018-11-20T15:53:46.501Z,3.39
2018-11-20T15:54:46.490Z,3.31
2018-11-20T15:55:46.519Z,3.32
2018-11-20T15:56:46.467Z,3.40
2018-11-20T15:57:46.456Z,3.28
2018-11-20T15:58:46.451Z,3.32
2018-11-20T15:59:46.435Z,3.33
2018-11-20T16:00:46.425Z,3.33
2018-11-20T16:01:46.443Z,3.40
2018-11-20T16:02:46.404Z,3.43
2018-11-20T16:03:46.390Z,3.29
2018-11-20T16:04:46.378Z,3.29
2018-11-20T16:05:46.368Z,3.23
2018-11-20T16:06:46.402Z,3.26
2018-11-20T16:07:46.355Z,3.26
2018-11-20T16:08:46.338Z,3.21
2018-11-20T16:09:46.324Z,3.24
2018-11-20T16:10:46.314Z,3.23
2018-11-20T16:11:46.305Z,3.20
2018-11-20T16:12:46.323Z,3.18
2018-11-20T16:13:46.283Z,3.13
2018-11-20T16:14:46.272Z,3.21
2018-11-20T16:15:46.259Z,3.23
2018-11-20T16:16:46.247Z,3.15
2018-11-20T16:17:46.272Z,3.14
2018-11-20T16:18:46.226Z,3.13
2018-11-20T16:19:46.217Z,3.14
2018-11-20T16:20:46.204Z,3.11
2018-11-20T16:21:46.194Z,3.11
2018-11-20T16:22:46.214Z,3.10
2018-11-20T16:23:46.173Z,3.08
2018-11-20T16:24:46.160Z,3.18
2018-11-20T16:25:46.152Z,3.15
2018-11-20T16:26:46.140Z,3.11
2018-11-20T16:27:46.245Z,3.11
2018-11-20T16:28:46.118Z,3.11
2018-11-20T16:29:46.107Z,3.13
2018-11-20T16:30:50.000Z,3.13
2018-11-20T16:31:46.087Z,3.10
2018-11-20T16:32:46.074Z,3.14
2018-11-20T16:33:46.096Z,3.15
2018-11-20T16:34:46.054Z,3.03
2018-11-20T16:35:46.041Z,3.05
2018-11-20T16:36:46.031Z,3.15
2018-11-20T16:37:46.021Z,3.05
2018-11-20T16:38:46.039Z,3.10
2018-11-20T16:39:46.000Z,3.03
2018-11-20T16:40:45.986Z,3.06
2018-11-20T16:41:45.977Z,3.11
2018-11-20T16:42:45.964Z,3.10
2018-11-20T16:43:45.985Z,3.06
2018-11-20T16:44:45.942Z,3.11
2018-11-20T16:45:45.932Z,3.15
2018-11-20T16:46:45.921Z,3.14
2018-11-20T16:47:45.910Z,3.14
2018-11-20T16:48:45.936Z,3.17
2018-11-20T16:49:45.890Z,3.15
2018-11-20T16:50:45.877Z,3.05
2018-11-20T16:51:45.867Z,3.05
2018-11-20T16:52:45.855Z,3.06
2018-11-20T16:53:45.877Z,3.08
2018-11-20T16:54:45.840Z,3.00
2018-11-20T16:55:45.824Z,3.03
2018-11-20T16:56:45.814Z,3.11
2018-11-20T16:57:45.801Z,3.05
2018-11-20T16:58:45.820Z,2.99
2018-11-20T16:59:45.779Z,3.05
2018-11-20T17:00:45.773Z,3.03
2018-11-20T17:01:45.767Z,3.03
2018-11-20T17:02:45.747Z,3.03
2018-11-20T17:03:45.781Z,2.97
2018-11-20T17:04:45.724Z,3.05
2018-11-20T17:05:45.715Z,2.99
2018-11-20T17:06:45.704Z,3.08
2018-11-20T17:07:45.693Z,3.02
2018-11-20T17:08:45.682Z,3.10
2018-11-20T17:09:45.709Z,3.00
2018-11-20T17:10:45.659Z,3.08
2018-11-20T17:11:45.649Z,3.06
2018-11-20T17:12:45.640Z,3.06
2018-11-20T17:13:45.628Z,2.95
2018-11-20T17:14:45.653Z,3.03
2018-11-20T17:15:45.613Z,2.93
2018-11-20T17:16:45.594Z,2.95
2018-11-20T17:17:45.584Z,2.93
2018-11-20T17:18:45.581Z,2.96
2018-11-20T17:19:45.601Z,2.96
2018-11-20T17:20:45.549Z,2.87
2018-11-20T17:21:45.566Z,2.96
2018-11-20T17:22:45.528Z,2.96
2018-11-20T17:23:45.517Z,2.87
2018-11-20T17:24:45.547Z,2.99
2018-11-20T17:25:45.497Z,2.95
2018-11-20T17:26:45.485Z,3.08
2018-11-20T17:27:45.474Z,2.93
2018-11-20T17:28:45.465Z,2.99
2018-11-20T17:29:45.492Z,3.00
2018-11-20T17:30:45.440Z,3.03
2018-11-20T17:31:45.431Z,2.99
2018-11-20T17:32:45.421Z,2.96
2018-11-20T17:33:45.414Z,3.02
2018-11-20T17:34:45.431Z,2.99
2018-11-20T17:35:45.387Z,2.93
2018-11-20T17:36:45.379Z,2.97
2018-11-20T17:37:45.366Z,2.95
2018-11-20T17:38:45.354Z,2.97
2018-11-20T17:39:45.387Z,2.96
2018-11-20T17:40:45.333Z,3.05
2018-11-20T17:41:45.326Z,3.03
2018-11-20T17:42:45.313Z,2.93
2018-11-20T17:43:45.302Z,2.93
2018-11-20T17:44:45.290Z,3.10
2018-11-20T17:45:45.320Z,3.06
2018-11-20T17:46:45.284Z,3.18
2018-11-20T17:47:45.259Z,3.08
2018-11-20T17:48:45.903Z,3.05
2018-11-20T17:49:45.237Z,2.93
2018-11-20T17:50:45.256Z,2.90
2018-11-20T17:51:47.673Z,2.99
2018-11-20T17:52:45.205Z,3.10
2018-11-20T17:53:45.191Z,2.99
2018-11-20T17:54:45.181Z,2.95
2018-11-20T17:55:45.201Z,2.96
2018-11-20T17:56:45.158Z,2.89
2018-11-20T17:57:45.147Z,2.90
2018-11-20T17:58:45.140Z,2.93
2018-11-20T17:59:45.127Z,2.89
2018-11-20T18:00:45.168Z,2.95
2018-11-20T18:01:45.105Z,2.96
2018-11-20T18:02:45.093Z,2.90
2018-11-20T18:03:45.082Z,3.03
2018-11-20T18:04:45.071Z,3.05
2018-11-20T18:05:45.061Z,2.89
2018-11-20T18:06:45.081Z,2.84
2018-11-20T18:07:45.044Z,2.84
2018-11-20T18:08:45.039Z,2.71
2018-11-20T18:09:45.017Z,2.82
2018-11-20T18:10:45.008Z,2.74
2018-11-20T18:11:45.028Z,2.75
2018-11-20T18:12:44.989Z,2.69
2018-11-20T18:13:44.973Z,2.64
2018-11-20T18:14:44.962Z,2.69
2018-11-20T18:15:44.953Z,2.59
2018-11-20T18:16:44.971Z,2.49
2018-11-20T18:17:44.930Z,2.54
2018-11-20T18:18:44.934Z,2.52
2018-11-20T18:19:44.908Z,2.41
2018-11-20T18:20:44.901Z,2.35
2018-11-20T18:21:44.927Z,2.39
2018-11-20T18:22:44.876Z,2.42
2018-11-20T18:23:44.863Z,2.43
2018-11-20T18:24:44.853Z,2.41
2018-11-20T18:25:44.842Z,2.38
2018-11-20T18:26:44.867Z,2.38
2018-11-20T18:27:44.818Z,2.45
2018-11-20T18:28:44.810Z,2.36
2018-11-20T18:29:44.799Z,2.39
2018-11-20T18:30:44.786Z,2.42
2018-11-20T18:31:44.806Z,2.27
2018-11-20T18:32:44.783Z,2.34
2018-11-20T18:33:44.751Z,2.39
2018-11-20T18:34:44.799Z,2.31
2018-11-20T18:35:44.729Z,2.34
2018-11-20T18:36:44.764Z,2.36
2018-11-20T18:37:44.709Z,2.28
2018-11-20T18:38:44.697Z,2.23
2018-11-20T18:39:44.688Z,2.24
2018-11-20T18:40:44.676Z,2.21
2018-11-20T18:41:44.662Z,2.28
2018-11-20T18:42:44.689Z,2.27
2018-11-20T18:43:44.646Z,2.21
2018-11-20T18:44:44.631Z,2.20
2018-11-20T18:45:44.619Z,2.20
2018-11-20T18:46:44.619Z,2.24
2018-11-20T18:47:44.632Z,2.27
2018-11-20T18:48:44.585Z,2.23
2018-11-20T18:49:44.578Z,2.34
2018-11-20T18:50:44.561Z,2.25
2018-11-20T18:51:44.553Z,2.34
2018-11-20T18:52:44.571Z,2.30
2018-11-20T18:53:44.534Z,2.25
2018-11-20T18:54:44.524Z,2.36
2018-11-20T18:55:44.507Z,2.30
2018-11-20T18:56:44.493Z,2.31
2018-11-20T18:57:44.517Z,2.25
2018-11-20T18:58:44.472Z,2.35
2018-11-20T18:59:44.462Z,2.36
2018-11-20T19:00:44.449Z,2.42
2018-11-20T19:01:44.438Z,2.53
2018-11-20T19:02:44.459Z,2.57
2018-11-20T19:03:44.415Z,2.52
2018-11-20T19:04:44.405Z,2.57
2018-11-20T19:05:44.393Z,2.59
2018-11-20T19:06:44.384Z,2.54
2018-11-20T19:07:44.412Z,2.56
2018-11-20T19:08:44.360Z,2.59
2018-11-20T19:09:44.352Z,2.41
2018-11-20T19:10:44.337Z,2.48
2018-11-20T19:11:44.332Z,2.61
2018-11-20T19:12:44.315Z,2.60
2018-11-20T19:13:44.336Z,2.63
2018-11-20T19:14:45.397Z,2.59
2018-11-20T19:15:44.285Z,2.60
2018-11-20T19:16:44.289Z,2.63
2018-11-20T19:17:44.261Z,2.67
2018-11-20T19:18:44.280Z,2.64
2018-11-20T19:19:44.237Z,2.54
2018-11-20T19:20:44.227Z,2.57
2018-11-20T19:21:44.216Z,2.59
2018-11-20T19:22:44.204Z,2.56
2018-11-20T19:23:44.230Z,2.53
2018-11-20T19:24:44.183Z,2.41
2018-11-20T19:25:44.173Z,2.34
2018-11-20T19:26:44.166Z,2.35
2018-11-20T19:27:44.161Z,2.23
2018-11-20T19:28:44.173Z,2.24
2018-11-20T19:29:44.128Z,2.31
2018-11-20T19:30:44.123Z,2.14
2018-11-20T19:31:44.110Z,2.12
2018-11-20T19:32:44.096Z,2.16
2018-11-20T19:33:44.117Z,2.21
2018-11-20T19:34:44.073Z,2.31
2018-11-20T19:35:44.063Z,2.28
2018-11-20T19:36:44.052Z,2.27
2018-11-20T19:37:44.058Z,2.36
2018-11-20T19:38:44.071Z,2.35
2018-11-20T19:39:44.031Z,2.31
2018-11-20T19:40:44.009Z,2.36
2018-11-20T19:41:44.001Z,2.42
2018-11-20T19:42:43.984Z,2.36
2018-11-20T19:43:43.991Z,2.41
2018-11-20T19:44:43.997Z,2.46
2018-11-20T19:45:43.952Z,2.46
2018-11-20T19:46:43.942Z,2.46
2018-11-20T19:47:43.929Z,2.52
2018-11-20T19:48:43.918Z,2.52
2018-11-20T19:49:43.937Z,2.56
2018-11-20T19:50:43.896Z,2.54
2018-11-20T19:51:43.885Z,2.60
2018-11-20T19:52:43.891Z,2.63
2018-11-20T19:53:44.329Z,2.54
2018-11-20T19:54:43.893Z,2.60
2018-11-20T19:55:43.840Z,2.64
2018-11-20T19:56:43.830Z,2.78
2018-11-20T19:57:43.819Z,2.72
2018-11-20T19:58:43.809Z,2.75
2018-11-20T19:59:43.797Z,2.84
2018-11-20T20:00:43.820Z,2.75
2018-11-20T20:01:43.778Z,2.78
2018-11-20T20:02:43.764Z,2.75
2018-11-20T20:03:43.757Z,2.79
2018-11-20T20:04:43.743Z,2.85
2018-11-20T20:05:43.776Z,2.78
2018-11-20T20:06:43.719Z,2.75
2018-11-20T20:07:43.710Z,2.81
2018-11-20T20:08:43.698Z,2.85
2018-11-20T20:09:43.692Z,2.77
2018-11-20T20:10:43.707Z,2.87
2018-11-20T20:11:43.669Z,2.82
2018-11-20T20:12:43.654Z,2.79
2018-11-20T20:13:43.644Z,2.87
2018-11-20T20:14:43.633Z,2.85
2018-11-20T20:15:44.647Z,2.74
2018-11-20T20:16:43.611Z,2.78
2018-11-20T20:17:43.601Z,2.71
2018-11-20T20:18:43.589Z,2.77
2018-11-20T20:19:43.579Z,2.72
2018-11-20T20:20:43.568Z,2.81
2018-11-20T20:21:43.589Z,2.78
2018-11-20T20:22:43.547Z,2.77
2018-11-20T20:23:43.534Z,2.75
2018-11-20T20:24:43.524Z,2.77
2018-11-20T20:25:43.514Z,2.71
2018-11-20T20:26:43.548Z,2.74
2018-11-20T20:27:43.492Z,2.69
2018-11-20T20:28:43.481Z,2.69
2018-11-20T20:29:43.470Z,2.67
2018-11-20T20:30:43.461Z,2.63
2018-11-20T20:31:43.449Z,2.72
2018-11-20T20:32:43.468Z,2.66
2018-11-20T20:33:43.429Z,2.67
2018-11-20T20:34:43.418Z,2.66
2018-11-20T20:35:43.404Z,2.75
2018-11-20T20:36:43.395Z,2.77
2018-11-20T20:37:43.414Z,2.75
2018-11-20T20:38:43.371Z,2.69
2018-11-20T20:39:43.361Z,2.71
2018-11-20T20:40:43.350Z,2.72
2018-11-20T20:41:43.344Z,2.71
2018-11-20T20:42:43.360Z,2.74
2018-11-20T20:43:43.320Z,2.74
2018-11-20T20:44:43.310Z,2.75
2018-11-20T20:45:43.295Z,2.67
2018-11-20T20:46:43.284Z,2.79
2018-11-20T20:47:43.305Z,2.77
2018-11-20T20:48:43.263Z,2.77
2018-11-20T20:49:43.252Z,2.69
2018-11-20T20:50:43.243Z,2.69
2018-11-20T20:51:43.233Z,2.85
2018-11-20T20:52:43.249Z,2.75
2018-11-20T20:53:43.208Z,2.79